sensor_id;sensor_type;location;lat;lon;timestamp;P1;durP1;ratioP1;P2;durP2;ratioP2
17854;SDS011;9053;53.358;6.382;2023-04-03T00:00:00;3.40;;;1.50;;
17854;SDS011;9053;53.358;6.382;2023-04-03T00:02:29;2.57;;;1.27;;
17854;SDS011;9053;53.358;6.382;2023-04-03T00:05:02;2.47;;;1.47;;
17854;SDS011;9053;53.358;6.382;2023-04-03T00:07:32;4.07;;;1.30;;
17854;SDS011;9053;53.358;6.382;2023-04-03T00:10:02;2.23;;;1.30;;
17854;SDS011;9053;53.358;6.382;2023-04-03T00:12:33;3.73;;;1.50;;
17854;SDS011;9053;53.358;6.382;2023-04-03T00:15:03;4.07;;;1.60;;
17854;SDS011;9053;53.358;6.382;2023-04-03T00:17:34;2.30;;;1.10;;
17854;SDS011;9053;53.358;6.382;2023-04-03T00:20:07;2.13;;;1.37;;
17854;SDS011;9053;53.358;6.382;2023-04-03T00:22:37;2.27;;;1.30;;
17854;SDS011;9053;53.358;6.382;2023-04-03T00:25:08;2.17;;;1.60;;
17854;SDS011;9053;53.358;6.382;2023-04-03T00:27:38;3.93;;;1.47;;
17854;SDS011;9053;53.358;6.382;2023-04-03T00:30:10;3.47;;;1.80;;
17854;SDS011;9053;53.358;6.382;2023-04-03T00:32:43;3.20;;;1.70;;
17854;SDS011;9053;53.358;6.382;2023-04-03T00:35:16;5.00;;;2.13;;
17854;SDS011;9053;53.358;6.382;2023-04-03T00:37:47;2.57;;;1.40;;
17854;SDS011;9053;53.358;6.382;2023-04-03T00:40:18;3.23;;;1.50;;
17854;SDS011;9053;53.358;6.382;2023-04-03T00:42:50;2.57;;;1.53;;
17854;SDS011;9053;53.358;6.382;2023-04-03T00:45:26;2.27;;;1.47;;
17854;SDS011;9053;53.358;6.382;2023-04-03T00:48:04;2.73;;;1.33;;
17854;SDS011;9053;53.358;6.382;2023-04-03T00:50:40;2.93;;;1.33;;
17854;SDS011;9053;53.358;6.382;2023-04-03T00:53:12;2.03;;;1.50;;
17854;SDS011;9053;53.358;6.382;2023-04-03T00:55:46;4.33;;;1.83;;
17854;SDS011;9053;53.358;6.382;2023-04-03T00:58:19;2.53;;;1.40;;
17854;SDS011;9053;53.358;6.382;2023-04-03T01:00:54;2.80;;;1.10;;
17854;SDS011;9053;53.358;6.382;2023-04-03T01:03:27;2.40;;;1.17;;
17854;SDS011;9053;53.358;6.382;2023-04-03T01:06:00;3.40;;;1.60;;
17854;SDS011;9053;53.358;6.382;2023-04-03T01:08:31;2.07;;;1.60;;
17854;SDS011;9053;53.358;6.382;2023-04-03T01:11:01;3.57;;;1.40;;
17854;SDS011;9053;53.358;6.382;2023-04-03T01:13:31;3.03;;;1.53;;
17854;SDS011;9053;53.358;6.382;2023-04-03T01:16:03;2.93;;;1.53;;
17854;SDS011;9053;53.358;6.382;2023-04-03T01:18:34;3.53;;;1.47;;
17854;SDS011;9053;53.358;6.382;2023-04-03T01:24:34;2.40;;;1.50;;
17854;SDS011;9053;53.358;6.382;2023-04-03T01:27:12;3.67;;;1.50;;
17854;SDS011;9053;53.358;6.382;2023-04-03T01:29:43;3.10;;;1.50;;
17854;SDS011;9053;53.358;6.382;2023-04-03T01:32:19;2.70;;;1.53;;
17854;SDS011;9053;53.358;6.382;2023-04-03T01:34:49;3.80;;;1.67;;
17854;SDS011;9053;53.358;6.382;2023-04-03T01:37:18;2.73;;;1.60;;
17854;SDS011;9053;53.358;6.382;2023-04-03T01:39:48;2.80;;;1.70;;
17854;SDS011;9053;53.358;6.382;2023-04-03T01:42:18;3.23;;;1.40;;
17854;SDS011;9053;53.358;6.382;2023-04-03T01:44:49;2.77;;;1.40;;
17854;SDS011;9053;53.358;6.382;2023-04-03T01:47:22;2.23;;;1.57;;
17854;SDS011;9053;53.358;6.382;2023-04-03T01:49:52;3.43;;;1.63;;
17854;SDS011;9053;53.358;6.382;2023-04-03T01:52:22;2.37;;;1.47;;
17854;SDS011;9053;53.358;6.382;2023-04-03T01:54:53;4.93;;;1.47;;
17854;SDS011;9053;53.358;6.382;2023-04-03T01:57:22;5.07;;;1.90;;
17854;SDS011;9053;53.358;6.382;2023-04-03T01:59:52;5.33;;;1.73;;
17854;SDS011;9053;53.358;6.382;2023-04-03T02:02:26;4.27;;;1.50;;
17854;SDS011;9053;53.358;6.382;2023-04-03T02:04:58;5.43;;;1.70;;
17854;SDS011;9053;53.358;6.382;2023-04-03T02:07:28;2.93;;;1.90;;
17854;SDS011;9053;53.358;6.382;2023-04-03T02:09:58;4.03;;;1.90;;
17854;SDS011;9053;53.358;6.382;2023-04-03T02:12:27;2.73;;;1.47;;
17854;SDS011;9053;53.358;6.382;2023-04-03T02:14:57;2.97;;;1.70;;
17854;SDS011;9053;53.358;6.382;2023-04-03T02:17:30;4.87;;;1.80;;
17854;SDS011;9053;53.358;6.382;2023-04-03T02:20:00;3.90;;;1.50;;
17854;SDS011;9053;53.358;6.382;2023-04-03T02:22:30;2.70;;;1.80;;
17854;SDS011;9053;53.358;6.382;2023-04-03T02:25:00;3.33;;;1.67;;
17854;SDS011;9053;53.358;6.382;2023-04-03T02:27:30;4.73;;;2.07;;
17854;SDS011;9053;53.358;6.382;2023-04-03T02:30:00;2.63;;;1.80;;
17854;SDS011;9053;53.358;6.382;2023-04-03T02:32:32;4.03;;;1.83;;
17854;SDS011;9053;53.358;6.382;2023-04-03T02:35:02;2.17;;;1.70;;
17854;SDS011;9053;53.358;6.382;2023-04-03T02:37:33;3.40;;;1.57;;
17854;SDS011;9053;53.358;6.382;2023-04-03T02:40:03;2.40;;;1.57;;
17854;SDS011;9053;53.358;6.382;2023-04-03T02:42:35;3.10;;;1.40;;
17854;SDS011;9053;53.358;6.382;2023-04-03T02:45:05;4.37;;;1.80;;
17854;SDS011;9053;53.358;6.382;2023-04-03T02:47:38;4.17;;;1.73;;
17854;SDS011;9053;53.358;6.382;2023-04-03T02:50:09;4.13;;;2.03;;
17854;SDS011;9053;53.358;6.382;2023-04-03T02:52:39;3.50;;;1.60;;
17854;SDS011;9053;53.358;6.382;2023-04-03T02:55:09;3.97;;;2.07;;
17854;SDS011;9053;53.358;6.382;2023-04-03T02:57:43;3.67;;;1.73;;
17854;SDS011;9053;53.358;6.382;2023-04-03T03:00:14;2.43;;;1.90;;
17854;SDS011;9053;53.358;6.382;2023-04-03T03:02:49;4.70;;;1.90;;
17854;SDS011;9053;53.358;6.382;2023-04-03T03:05:19;3.60;;;1.70;;
17854;SDS011;9053;53.358;6.382;2023-04-03T03:07:49;3.43;;;1.77;;
17854;SDS011;9053;53.358;6.382;2023-04-03T03:10:21;2.87;;;1.80;;
17854;SDS011;9053;53.358;6.382;2023-04-03T03:12:51;3.47;;;1.80;;
17854;SDS011;9053;53.358;6.382;2023-04-03T03:15:21;4.27;;;1.90;;
17854;SDS011;9053;53.358;6.382;2023-04-03T03:17:54;3.50;;;1.90;;
17854;SDS011;9053;53.358;6.382;2023-04-03T03:20:23;2.97;;;1.60;;
17854;SDS011;9053;53.358;6.382;2023-04-03T03:22:53;4.07;;;1.90;;
17854;SDS011;9053;53.358;6.382;2023-04-03T03:25:23;3.10;;;1.70;;
17854;SDS011;9053;53.358;6.382;2023-04-03T03:27:53;3.27;;;1.90;;
17854;SDS011;9053;53.358;6.382;2023-04-03T03:30:23;4.00;;;2.00;;
17854;SDS011;9053;53.358;6.382;2023-04-03T03:32:55;3.83;;;2.03;;
17854;SDS011;9053;53.358;6.382;2023-04-03T03:35:28;2.73;;;1.40;;
17854;SDS011;9053;53.358;6.382;2023-04-03T03:37:57;4.37;;;2.47;;
17854;SDS011;9053;53.358;6.382;2023-04-03T03:40:27;4.27;;;1.80;;
17854;SDS011;9053;53.358;6.382;2023-04-03T03:42:57;3.63;;;2.20;;
17854;SDS011;9053;53.358;6.382;2023-04-03T03:45:32;3.10;;;2.10;;
17854;SDS011;9053;53.358;6.382;2023-04-03T03:48:05;5.83;;;2.03;;
17854;SDS011;9053;53.358;6.382;2023-04-03T03:50:35;5.30;;;2.00;;
17854;SDS011;9053;53.358;6.382;2023-04-03T03:53:05;5.97;;;2.10;;
17854;SDS011;9053;53.358;6.382;2023-04-03T03:55:35;3.63;;;1.90;;
17854;SDS011;9053;53.358;6.382;2023-04-03T03:58:05;5.30;;;1.90;;
17854;SDS011;9053;53.358;6.382;2023-04-03T04:00:35;4.30;;;1.93;;
17854;SDS011;9053;53.358;6.382;2023-04-03T04:03:07;5.07;;;2.10;;
17854;SDS011;9053;53.358;6.382;2023-04-03T04:05:39;5.73;;;2.40;;
17854;SDS011;9053;53.358;6.382;2023-04-03T04:08:09;4.30;;;2.37;;
17854;SDS011;9053;53.358;6.382;2023-04-03T04:10:39;4.27;;;2.20;;
17854;SDS011;9053;53.358;6.382;2023-04-03T04:13:09;4.50;;;2.30;;
17854;SDS011;9053;53.358;6.382;2023-04-03T04:15:39;4.37;;;1.93;;
17854;SDS011;9053;53.358;6.382;2023-04-03T04:18:12;5.20;;;2.70;;
17854;SDS011;9053;53.358;6.382;2023-04-03T04:20:42;8.57;;;2.40;;
17854;SDS011;9053;53.358;6.382;2023-04-03T04:23:13;7.47;;;2.60;;
17854;SDS011;9053;53.358;6.382;2023-04-03T04:25:44;4.00;;;2.17;;
17854;SDS011;9053;53.358;6.382;2023-04-03T04:28:14;4.40;;;2.10;;
17854;SDS011;9053;53.358;6.382;2023-04-03T04:30:46;5.97;;;2.17;;
17854;SDS011;9053;53.358;6.382;2023-04-03T04:33:18;5.73;;;2.70;;
17854;SDS011;9053;53.358;6.382;2023-04-03T04:35:48;5.50;;;2.00;;
17854;SDS011;9053;53.358;6.382;2023-04-03T04:38:18;7.47;;;2.60;;
17854;SDS011;9053;53.358;6.382;2023-04-03T04:40:48;3.50;;;2.00;;
17854;SDS011;9053;53.358;6.382;2023-04-03T04:43:18;4.23;;;2.30;;
17854;SDS011;9053;53.358;6.382;2023-04-03T04:45:48;4.83;;;2.30;;
17854;SDS011;9053;53.358;6.382;2023-04-03T04:48:20;5.23;;;2.43;;
17854;SDS011;9053;53.358;6.382;2023-04-03T04:50:50;7.83;;;2.77;;
17854;SDS011;9053;53.358;6.382;2023-04-03T04:53:20;6.27;;;2.80;;
17854;SDS011;9053;53.358;6.382;2023-04-03T04:55:50;5.33;;;2.53;;
17854;SDS011;9053;53.358;6.382;2023-04-03T04:58:20;6.27;;;2.40;;
17854;SDS011;9053;53.358;6.382;2023-04-03T05:00:51;6.70;;;2.23;;
17854;SDS011;9053;53.358;6.382;2023-04-03T05:03:31;5.10;;;2.57;;
17854;SDS011;9053;53.358;6.382;2023-04-03T05:06:02;5.17;;;2.60;;
17854;SDS011;9053;53.358;6.382;2023-04-03T05:08:32;6.73;;;2.93;;
17854;SDS011;9053;53.358;6.382;2023-04-03T05:11:02;4.77;;;2.87;;
17854;SDS011;9053;53.358;6.382;2023-04-03T05:13:32;4.80;;;2.57;;
17854;SDS011;9053;53.358;6.382;2023-04-03T05:16:02;7.20;;;2.47;;
17854;SDS011;9053;53.358;6.382;2023-04-03T05:18:35;7.00;;;2.90;;
17854;SDS011;9053;53.358;6.382;2023-04-03T05:21:05;4.33;;;2.70;;
17854;SDS011;9053;53.358;6.382;2023-04-03T05:23:34;7.97;;;2.93;;
17854;SDS011;9053;53.358;6.382;2023-04-03T05:26:04;5.23;;;2.83;;
17854;SDS011;9053;53.358;6.382;2023-04-03T05:28:34;4.13;;;2.10;;
17854;SDS011;9053;53.358;6.382;2023-04-03T05:31:05;11.40;;;3.40;;
17854;SDS011;9053;53.358;6.382;2023-04-03T05:33:37;3.87;;;2.50;;
17854;SDS011;9053;53.358;6.382;2023-04-03T05:36:07;9.50;;;2.60;;
17854;SDS011;9053;53.358;6.382;2023-04-03T05:38:39;6.30;;;2.77;;
17854;SDS011;9053;53.358;6.382;2023-04-03T05:41:09;4.93;;;2.70;;
17854;SDS011;9053;53.358;6.382;2023-04-03T05:43:39;4.77;;;2.70;;
17854;SDS011;9053;53.358;6.382;2023-04-03T05:46:10;7.47;;;2.90;;
17854;SDS011;9053;53.358;6.382;2023-04-03T05:48:43;5.57;;;3.00;;
17854;SDS011;9053;53.358;6.382;2023-04-03T05:51:14;6.63;;;2.87;;
17854;SDS011;9053;53.358;6.382;2023-04-03T05:53:47;6.13;;;2.70;;
17854;SDS011;9053;53.358;6.382;2023-04-03T05:56:19;6.17;;;3.13;;
17854;SDS011;9053;53.358;6.382;2023-04-03T05:58:49;5.97;;;2.73;;
17854;SDS011;9053;53.358;6.382;2023-04-03T06:01:19;5.17;;;2.73;;
17854;SDS011;9053;53.358;6.382;2023-04-03T06:03:52;6.70;;;2.70;;
17854;SDS011;9053;53.358;6.382;2023-04-03T06:06:25;6.07;;;2.50;;
17854;SDS011;9053;53.358;6.382;2023-04-03T06:08:55;6.30;;;2.60;;
17854;SDS011;9053;53.358;6.382;2023-04-03T06:11:28;12.23;;;2.77;;
17854;SDS011;9053;53.358;6.382;2023-04-03T06:13:58;6.80;;;3.27;;
17854;SDS011;9053;53.358;6.382;2023-04-03T06:16:28;5.63;;;2.83;;
17854;SDS011;9053;53.358;6.382;2023-04-03T06:19:01;4.90;;;2.60;;
17854;SDS011;9053;53.358;6.382;2023-04-03T06:21:32;6.53;;;3.00;;
17854;SDS011;9053;53.358;6.382;2023-04-03T06:24:02;7.63;;;2.73;;
17854;SDS011;9053;53.358;6.382;2023-04-03T06:26:32;9.03;;;3.23;;
17854;SDS011;9053;53.358;6.382;2023-04-03T06:29:02;5.40;;;2.60;;
17854;SDS011;9053;53.358;6.382;2023-04-03T06:31:35;7.07;;;3.17;;
17854;SDS011;9053;53.358;6.382;2023-04-03T06:34:08;6.90;;;2.53;;
17854;SDS011;9053;53.358;6.382;2023-04-03T06:36:40;9.10;;;2.80;;
17854;SDS011;9053;53.358;6.382;2023-04-03T06:39:11;4.23;;;2.90;;
17854;SDS011;9053;53.358;6.382;2023-04-03T06:41:43;5.57;;;2.37;;
17854;SDS011;9053;53.358;6.382;2023-04-03T06:44:14;8.37;;;2.97;;
17854;SDS011;9053;53.358;6.382;2023-04-03T06:46:44;6.33;;;2.37;;
17854;SDS011;9053;53.358;6.382;2023-04-03T06:49:17;8.37;;;2.97;;
17854;SDS011;9053;53.358;6.382;2023-04-03T06:51:48;5.43;;;2.90;;
17854;SDS011;9053;53.358;6.382;2023-04-03T06:54:18;5.80;;;2.83;;
17854;SDS011;9053;53.358;6.382;2023-04-03T06:56:48;7.17;;;2.63;;
17854;SDS011;9053;53.358;6.382;2023-04-03T06:59:17;6.23;;;2.30;;
17854;SDS011;9053;53.358;6.382;2023-04-03T07:01:47;5.47;;;2.60;;
17854;SDS011;9053;53.358;6.382;2023-04-03T07:04:20;6.07;;;2.60;;
17854;SDS011;9053;53.358;6.382;2023-04-03T07:06:51;5.70;;;2.60;;
17854;SDS011;9053;53.358;6.382;2023-04-03T07:09:21;4.63;;;2.43;;
17854;SDS011;9053;53.358;6.382;2023-04-03T07:11:51;6.30;;;2.80;;
17854;SDS011;9053;53.358;6.382;2023-04-03T07:14:20;5.00;;;2.30;;
17854;SDS011;9053;53.358;6.382;2023-04-03T07:16:51;6.23;;;2.53;;
17854;SDS011;9053;53.358;6.382;2023-04-03T07:19:23;5.73;;;2.60;;
17854;SDS011;9053;53.358;6.382;2023-04-03T07:21:54;6.37;;;2.60;;
17854;SDS011;9053;53.358;6.382;2023-04-03T07:24:24;5.50;;;2.27;;
17854;SDS011;9053;53.358;6.382;2023-04-03T07:26:54;6.47;;;2.47;;
17854;SDS011;9053;53.358;6.382;2023-04-03T07:29:23;6.80;;;2.70;;
17854;SDS011;9053;53.358;6.382;2023-04-03T07:31:53;4.80;;;2.40;;
17854;SDS011;9053;53.358;6.382;2023-04-03T07:34:27;7.07;;;2.83;;
17854;SDS011;9053;53.358;6.382;2023-04-03T07:36:57;4.43;;;2.00;;
17854;SDS011;9053;53.358;6.382;2023-04-03T07:39:27;4.23;;;2.70;;
17854;SDS011;9053;53.358;6.382;2023-04-03T07:41:57;5.30;;;2.63;;
17854;SDS011;9053;53.358;6.382;2023-04-03T07:44:27;6.17;;;2.50;;
17854;SDS011;9053;53.358;6.382;2023-04-03T07:46:59;4.67;;;2.20;;
17854;SDS011;9053;53.358;6.382;2023-04-03T07:49:31;4.83;;;2.33;;
17854;SDS011;9053;53.358;6.382;2023-04-03T07:52:04;7.87;;;2.67;;
17854;SDS011;9053;53.358;6.382;2023-04-03T07:54:35;6.23;;;2.30;;
17854;SDS011;9053;53.358;6.382;2023-04-03T07:57:05;4.77;;;2.57;;
17854;SDS011;9053;53.358;6.382;2023-04-03T07:59:35;3.73;;;2.37;;
17854;SDS011;9053;53.358;6.382;2023-04-03T08:02:07;4.57;;;2.13;;
17854;SDS011;9053;53.358;6.382;2023-04-03T08:04:43;4.10;;;2.17;;
17854;SDS011;9053;53.358;6.382;2023-04-03T08:07:13;6.60;;;2.83;;
17854;SDS011;9053;53.358;6.382;2023-04-03T08:09:45;6.03;;;2.20;;
17854;SDS011;9053;53.358;6.382;2023-04-03T08:12:15;6.60;;;2.53;;
17854;SDS011;9053;53.358;6.382;2023-04-03T08:14:46;5.03;;;2.03;;
17854;SDS011;9053;53.358;6.382;2023-04-03T08:17:16;4.30;;;2.20;;
17854;SDS011;9053;53.358;6.382;2023-04-03T08:19:52;2.83;;;2.20;;
17854;SDS011;9053;53.358;6.382;2023-04-03T08:22:22;4.20;;;2.03;;
17854;SDS011;9053;53.358;6.382;2023-04-03T08:24:52;4.40;;;1.83;;
17854;SDS011;9053;53.358;6.382;2023-04-03T08:27:25;2.67;;;2.13;;
17854;SDS011;9053;53.358;6.382;2023-04-03T08:29:57;4.70;;;2.30;;
17854;SDS011;9053;53.358;6.382;2023-04-03T08:32:27;4.23;;;1.90;;
17854;SDS011;9053;53.358;6.382;2023-04-03T08:35:03;3.97;;;1.87;;
17854;SDS011;9053;53.358;6.382;2023-04-03T08:37:34;4.13;;;2.03;;
17854;SDS011;9053;53.358;6.382;2023-04-03T08:40:06;3.50;;;1.73;;
17854;SDS011;9053;53.358;6.382;2023-04-03T08:42:45;3.60;;;1.70;;
17854;SDS011;9053;53.358;6.382;2023-04-03T08:45:31;2.97;;;1.80;;
17854;SDS011;9053;53.358;6.382;2023-04-03T08:48:17;3.07;;;1.90;;
17854;SDS011;9053;53.358;6.382;2023-04-03T08:50:54;3.77;;;1.50;;
17854;SDS011;9053;53.358;6.382;2023-04-03T08:53:29;3.93;;;1.80;;
17854;SDS011;9053;53.358;6.382;2023-04-03T08:56:02;2.10;;;1.43;;
17854;SDS011;9053;53.358;6.382;2023-04-03T08:58:39;3.03;;;1.90;;
17854;SDS011;9053;53.358;6.382;2023-04-03T09:01:16;3.37;;;1.73;;
17854;SDS011;9053;53.358;6.382;2023-04-03T09:03:49;3.33;;;1.80;;
17854;SDS011;9053;53.358;6.382;2023-04-03T09:06:23;5.00;;;1.70;;
17854;SDS011;9053;53.358;6.382;2023-04-03T09:09:01;3.27;;;2.00;;
17854;SDS011;9053;53.358;6.382;2023-04-03T09:11:46;2.17;;;1.53;;
17854;SDS011;9053;53.358;6.382;2023-04-03T09:14:23;2.57;;;1.63;;
17854;SDS011;9053;53.358;6.382;2023-04-03T09:17:02;3.37;;;1.83;;
17854;SDS011;9053;53.358;6.382;2023-04-03T09:19:35;1.80;;;1.50;;
17854;SDS011;9053;53.358;6.382;2023-04-03T09:22:16;3.13;;;1.40;;
17854;SDS011;9053;53.358;6.382;2023-04-03T09:24:51;2.50;;;1.37;;
17854;SDS011;9053;53.358;6.382;2023-04-03T09:27:26;2.33;;;1.50;;
17854;SDS011;9053;53.358;6.382;2023-04-03T09:29:57;2.73;;;1.40;;
17854;SDS011;9053;53.358;6.382;2023-04-03T09:32:30;3.33;;;1.37;;
17854;SDS011;9053;53.358;6.382;2023-04-03T09:35:02;3.00;;;1.67;;
17854;SDS011;9053;53.358;6.382;2023-04-03T09:37:53;2.40;;;1.40;;
17854;SDS011;9053;53.358;6.382;2023-04-03T09:40:28;2.30;;;1.40;;
17854;SDS011;9053;53.358;6.382;2023-04-03T09:43:04;3.73;;;1.70;;
17854;SDS011;9053;53.358;6.382;2023-04-03T09:45:50;4.63;;;1.67;;
17854;SDS011;9053;53.358;6.382;2023-04-03T09:48:21;2.73;;;1.47;;
17854;SDS011;9053;53.358;6.382;2023-04-03T09:50:53;3.67;;;1.60;;
17854;SDS011;9053;53.358;6.382;2023-04-03T09:53:29;2.07;;;1.37;;
17854;SDS011;9053;53.358;6.382;2023-04-03T09:56:03;3.20;;;1.70;;
17854;SDS011;9053;53.358;6.382;2023-04-03T09:58:36;4.20;;;1.87;;
17854;SDS011;9053;53.358;6.382;2023-04-03T10:01:21;3.47;;;1.83;;
17854;SDS011;9053;53.358;6.382;2023-04-03T10:04:05;2.50;;;1.30;;
17854;SDS011;9053;53.358;6.382;2023-04-03T10:06:38;1.70;;;1.10;;
17854;SDS011;9053;53.358;6.382;2023-04-03T10:09:20;4.07;;;1.67;;
17854;SDS011;9053;53.358;6.382;2023-04-03T10:11:58;2.33;;;1.50;;
17854;SDS011;9053;53.358;6.382;2023-04-03T10:14:31;2.40;;;1.60;;
17854;SDS011;9053;53.358;6.382;2023-04-03T10:17:03;3.63;;;1.93;;
17854;SDS011;9053;53.358;6.382;2023-04-03T10:19:45;3.20;;;1.60;;
17854;SDS011;9053;53.358;6.382;2023-04-03T10:22:20;3.63;;;1.90;;
17854;SDS011;9053;53.358;6.382;2023-04-03T10:25:04;2.53;;;1.60;;
17854;SDS011;9053;53.358;6.382;2023-04-03T10:27:48;3.47;;;1.60;;
17854;SDS011;9053;53.358;6.382;2023-04-03T10:30:31;2.53;;;1.40;;
17854;SDS011;9053;53.358;6.382;2023-04-03T10:33:09;4.80;;;1.53;;
17854;SDS011;9053;53.358;6.382;2023-04-03T10:35:51;3.80;;;1.43;;
17854;SDS011;9053;53.358;6.382;2023-04-03T10:38:33;2.50;;;1.60;;
17854;SDS011;9053;53.358;6.382;2023-04-03T10:41:15;3.03;;;1.80;;
17854;SDS011;9053;53.358;6.382;2023-04-03T10:43:53;2.53;;;1.30;;
17854;SDS011;9053;53.358;6.382;2023-04-03T10:46:37;2.53;;;1.53;;
17854;SDS011;9053;53.358;6.382;2023-04-03T10:49:14;3.43;;;1.53;;
17854;SDS011;9053;53.358;6.382;2023-04-03T10:51:55;2.20;;;1.50;;
17854;SDS011;9053;53.358;6.382;2023-04-03T10:54:32;2.37;;;1.63;;
17854;SDS011;9053;53.358;6.382;2023-04-03T10:57:10;2.37;;;1.60;;
17854;SDS011;9053;53.358;6.382;2023-04-03T10:59:41;3.50;;;1.50;;
17854;SDS011;9053;53.358;6.382;2023-04-03T11:02:17;1.90;;;1.10;;
17854;SDS011;9053;53.358;6.382;2023-04-03T11:04:58;4.50;;;1.63;;
17854;SDS011;9053;53.358;6.382;2023-04-03T11:07:33;2.83;;;1.50;;
17854;SDS011;9053;53.358;6.382;2023-04-03T11:10:10;4.30;;;1.90;;
17854;SDS011;9053;53.358;6.382;2023-04-03T11:12:47;2.73;;;1.50;;
17854;SDS011;9053;53.358;6.382;2023-04-03T11:15:22;2.33;;;1.50;;
17854;SDS011;9053;53.358;6.382;2023-04-03T11:17:54;3.47;;;1.50;;
17854;SDS011;9053;53.358;6.382;2023-04-03T11:20:29;3.50;;;1.33;;
17854;SDS011;9053;53.358;6.382;2023-04-03T11:23:01;2.17;;;1.10;;
17854;SDS011;9053;53.358;6.382;2023-04-03T11:25:35;2.87;;;1.70;;
17854;SDS011;9053;53.358;6.382;2023-04-03T11:28:14;3.23;;;1.83;;
17854;SDS011;9053;53.358;6.382;2023-04-03T11:30:46;3.20;;;1.50;;
17854;SDS011;9053;53.358;6.382;2023-04-03T11:33:24;1.93;;;1.43;;
17854;SDS011;9053;53.358;6.382;2023-04-03T11:36:02;2.90;;;1.67;;
17854;SDS011;9053;53.358;6.382;2023-04-03T11:38:53;2.67;;;1.20;;
17854;SDS011;9053;53.358;6.382;2023-04-03T11:41:26;3.17;;;1.30;;
17854;SDS011;9053;53.358;6.382;2023-04-03T11:44:02;2.47;;;1.50;;
17854;SDS011;9053;53.358;6.382;2023-04-03T11:46:48;2.20;;;1.40;;
17854;SDS011;9053;53.358;6.382;2023-04-03T11:58:21;2.93;;;1.40;;
17854;SDS011;9053;53.358;6.382;2023-04-03T12:00:56;3.17;;;1.40;;
17854;SDS011;9053;53.358;6.382;2023-04-03T12:06:52;2.63;;;1.00;;
17854;SDS011;9053;53.358;6.382;2023-04-03T12:12:58;2.53;;;1.43;;
17854;SDS011;9053;53.358;6.382;2023-04-03T12:24:36;2.30;;;1.30;;
17854;SDS011;9053;53.358;6.382;2023-04-03T12:27:22;2.73;;;1.70;;
17854;SDS011;9053;53.358;6.382;2023-04-03T12:29:55;1.97;;;1.57;;
17854;SDS011;9053;53.358;6.382;2023-04-03T12:32:35;3.30;;;1.40;;
17854;SDS011;9053;53.358;6.382;2023-04-03T12:35:34;2.10;;;1.40;;
17854;SDS011;9053;53.358;6.382;2023-04-03T12:38:19;2.53;;;1.70;;
17854;SDS011;9053;53.358;6.382;2023-04-03T12:40:57;2.53;;;1.30;;
17854;SDS011;9053;53.358;6.382;2023-04-03T12:43:40;2.10;;;1.33;;
17854;SDS011;9053;53.358;6.382;2023-04-03T12:46:17;3.00;;;1.57;;
17854;SDS011;9053;53.358;6.382;2023-04-03T12:48:49;2.07;;;1.33;;
17854;SDS011;9053;53.358;6.382;2023-04-03T12:51:26;3.80;;;1.53;;
17854;SDS011;9053;53.358;6.382;2023-04-03T12:54:04;2.70;;;1.43;;
17854;SDS011;9053;53.358;6.382;2023-04-03T12:56:44;3.23;;;1.30;;
17854;SDS011;9053;53.358;6.382;2023-04-03T12:59:14;2.60;;;1.57;;
17854;SDS011;9053;53.358;6.382;2023-04-03T13:01:54;2.93;;;1.60;;
17854;SDS011;9053;53.358;6.382;2023-04-03T13:04:26;2.57;;;1.43;;
17854;SDS011;9053;53.358;6.382;2023-04-03T13:07:00;2.00;;;1.33;;
17854;SDS011;9053;53.358;6.382;2023-04-03T13:09:30;3.33;;;1.70;;
17854;SDS011;9053;53.358;6.382;2023-04-03T13:12:02;4.20;;;1.60;;
17854;SDS011;9053;53.358;6.382;2023-04-03T13:14:38;3.57;;;1.40;;
17854;SDS011;9053;53.358;6.382;2023-04-03T13:17:10;3.70;;;1.93;;
17854;SDS011;9053;53.358;6.382;2023-04-03T13:19:43;4.03;;;1.70;;
17854;SDS011;9053;53.358;6.382;2023-04-03T13:22:21;2.60;;;1.60;;
17854;SDS011;9053;53.358;6.382;2023-04-03T13:24:57;4.20;;;2.10;;
17854;SDS011;9053;53.358;6.382;2023-04-03T13:27:29;5.10;;;2.00;;
17854;SDS011;9053;53.358;6.382;2023-04-03T13:30:01;3.63;;;1.77;;
17854;SDS011;9053;53.358;6.382;2023-04-03T13:32:34;3.70;;;2.00;;
17854;SDS011;9053;53.358;6.382;2023-04-03T13:38:01;2.97;;;1.80;;
17854;SDS011;9053;53.358;6.382;2023-04-03T13:40:38;5.10;;;1.77;;
17854;SDS011;9053;53.358;6.382;2023-04-03T13:43:18;3.73;;;1.90;;
17854;SDS011;9053;53.358;6.382;2023-04-03T13:45:57;5.27;;;1.80;;
17854;SDS011;9053;53.358;6.382;2023-04-03T13:48:46;3.53;;;1.80;;
17854;SDS011;9053;53.358;6.382;2023-04-03T13:51:18;3.33;;;1.80;;
17854;SDS011;9053;53.358;6.382;2023-04-03T13:53:53;3.17;;;1.53;;
17854;SDS011;9053;53.358;6.382;2023-04-03T13:56:27;3.77;;;1.50;;
17854;SDS011;9053;53.358;6.382;2023-04-03T13:59:18;2.80;;;1.80;;
17854;SDS011;9053;53.358;6.382;2023-04-03T14:01:53;3.50;;;1.87;;
17854;SDS011;9053;53.358;6.382;2023-04-03T14:04:27;3.47;;;1.93;;
17854;SDS011;9053;53.358;6.382;2023-04-03T14:06:59;3.43;;;1.70;;
17854;SDS011;9053;53.358;6.382;2023-04-03T14:09:31;3.03;;;1.40;;
17854;SDS011;9053;53.358;6.382;2023-04-03T14:12:04;4.00;;;1.77;;
17854;SDS011;9053;53.358;6.382;2023-04-03T14:14:49;1.97;;;1.30;;
17854;SDS011;9053;53.358;6.382;2023-04-03T14:17:22;3.20;;;1.80;;
17854;SDS011;9053;53.358;6.382;2023-04-03T14:19:54;2.20;;;1.23;;
17854;SDS011;9053;53.358;6.382;2023-04-03T14:22:26;4.40;;;1.53;;
17854;SDS011;9053;53.358;6.382;2023-04-03T14:25:00;2.00;;;1.60;;
17854;SDS011;9053;53.358;6.382;2023-04-03T14:27:35;4.73;;;1.63;;
17854;SDS011;9053;53.358;6.382;2023-04-03T14:30:08;2.43;;;1.30;;
17854;SDS011;9053;53.358;6.382;2023-04-03T14:32:43;3.07;;;1.20;;
17854;SDS011;9053;53.358;6.382;2023-04-03T14:35:13;1.90;;;1.33;;
17854;SDS011;9053;53.358;6.382;2023-04-03T14:37:44;2.60;;;1.10;;
17854;SDS011;9053;53.358;6.382;2023-04-03T14:40:19;2.03;;;1.10;;
17854;SDS011;9053;53.358;6.382;2023-04-03T14:42:50;3.80;;;1.27;;
17854;SDS011;9053;53.358;6.382;2023-04-03T14:45:22;2.23;;;1.17;;
17854;SDS011;9053;53.358;6.382;2023-04-03T14:47:53;1.23;;;0.90;;
17854;SDS011;9053;53.358;6.382;2023-04-03T14:50:24;3.23;;;1.20;;
17854;SDS011;9053;53.358;6.382;2023-04-03T14:52:57;2.57;;;1.00;;
17854;SDS011;9053;53.358;6.382;2023-04-03T14:55:30;1.63;;;0.97;;
17854;SDS011;9053;53.358;6.382;2023-04-03T14:58:01;2.47;;;1.40;;
17854;SDS011;9053;53.358;6.382;2023-04-03T15:00:31;1.10;;;1.00;;
17854;SDS011;9053;53.358;6.382;2023-04-03T15:03:01;2.13;;;1.03;;
17854;SDS011;9053;53.358;6.382;2023-04-03T15:05:31;2.63;;;1.00;;
17854;SDS011;9053;53.358;6.382;2023-04-03T15:08:01;1.27;;;1.07;;
17854;SDS011;9053;53.358;6.382;2023-04-03T15:10:36;1.40;;;1.10;;
17854;SDS011;9053;53.358;6.382;2023-04-03T15:13:08;1.73;;;1.27;;
17854;SDS011;9053;53.358;6.382;2023-04-03T15:15:41;2.07;;;1.17;;
17854;SDS011;9053;53.358;6.382;2023-04-03T15:18:14;1.73;;;1.20;;
17854;SDS011;9053;53.358;6.382;2023-04-03T15:20:47;2.87;;;1.20;;
17854;SDS011;9053;53.358;6.382;2023-04-03T15:23:17;2.33;;;1.30;;
17854;SDS011;9053;53.358;6.382;2023-04-03T15:25:54;1.20;;;1.10;;
17854;SDS011;9053;53.358;6.382;2023-04-03T15:28:26;2.43;;;1.17;;
17854;SDS011;9053;53.358;6.382;2023-04-03T15:30:59;1.73;;;1.13;;
17854;SDS011;9053;53.358;6.382;2023-04-03T15:33:31;1.83;;;1.10;;
17854;SDS011;9053;53.358;6.382;2023-04-03T15:36:02;2.50;;;1.27;;
17854;SDS011;9053;53.358;6.382;2023-04-03T15:38:53;2.03;;;1.30;;
17854;SDS011;9053;53.358;6.382;2023-04-03T15:41:25;2.03;;;1.30;;
17854;SDS011;9053;53.358;6.382;2023-04-03T15:43:55;1.70;;;1.27;;
17854;SDS011;9053;53.358;6.382;2023-04-03T15:46:25;3.03;;;1.23;;
17854;SDS011;9053;53.358;6.382;2023-04-03T15:48:55;3.77;;;1.60;;
17854;SDS011;9053;53.358;6.382;2023-04-03T15:51:25;1.37;;;1.10;;
17854;SDS011;9053;53.358;6.382;2023-04-03T15:53:55;3.87;;;1.60;;
17854;SDS011;9053;53.358;6.382;2023-04-03T15:56:28;1.90;;;1.27;;
17854;SDS011;9053;53.358;6.382;2023-04-03T15:58:57;3.90;;;1.60;;
17854;SDS011;9053;53.358;6.382;2023-04-03T16:01:27;1.83;;;1.33;;
17854;SDS011;9053;53.358;6.382;2023-04-03T16:03:57;3.90;;;1.50;;
17854;SDS011;9053;53.358;6.382;2023-04-03T16:06:29;1.93;;;1.40;;